Observation data for Abernathy on 04/23/2019      Previous  Date  Next       Current Mesonet Observations  Soil Data  Daily Summary Page  Observations in Plain Language
KARS 230500Z 04014G19KT 12/11 A3007 RMK A01 T01230105  RH  092%=      5-min Rain = 0
KARS 230505Z 03014KT 12/11 A3007 RMK A01 T01230105  RH  091%=      5-min Rain = 0
KARS 230510Z 04011G16KT 12/11 A3007 RMK A01 T01230105  RH  092%=      5-min Rain = 0
KARS 230515Z 04012KT 12/11 A3007 RMK A01 T01230105  RH  092%=      5-min Rain = 0
KARS 230520Z 04011KT 12/11 A3007 RMK A01 T01230105  RH  092%=      5-min Rain = 0
KARS 230525Z 04011KT 12/11 A3007 RMK A01 T01230105  RH  092%=      5-min Rain = 0
KARS 230530Z 04012KT 12/11 A3007 RMK A01 T01230105  RH  092%=      5-min Rain = 0
KARS 230535Z 04012KT 12/11 A3006 RMK A01 T01240106  RH  092%=      5-min Rain = 0
KARS 230540Z 04013G18KT 12/11 A3006 RMK A01 T01240105  RH  091%=      5-min Rain = 0
KARS 230545Z 03014KT 12/11 A3006 RMK A01 T01240106  RH  091%=      5-min Rain = 0
KARS 230550Z 03014KT 13/11 A3006 RMK A01 T01250105  RH  091%=      5-min Rain = 0
KARS 230555Z 03015G21KT 13/11 A3006 RMK A01 T01250105  RH  091%=      5-min Rain = 0
KARS 230600Z 04014G20KT 12/11 A3005 RMK A01 T01240105  RH  091%=      5-min Rain = 0
KARS 230605Z 05015KT 12/10 A3005 RMK A01 T01230104  RH  091%=      5-min Rain = 0
KARS 230610Z 05016KT 12/10 A3005 RMK A01 T01220104  RH  091%=      5-min Rain = 0
KARS 230615Z 05015KT 12/10 A3005 RMK A01 T01230103  RH  091%=      5-min Rain = 0
KARS 230620Z 04014KT 12/10 A3006 RMK A01 T01230104  RH  091%=      5-min Rain = 0
KARS 230625Z 04013KT 12/10 A3006 RMK A01 T01230104  RH  091%=      5-min Rain = 0
KARS 230630Z 04012G17KT 12/11 A3006 RMK A01 T01230105  RH  092%=      5-min Rain = 0
KARS 230635Z 04013KT 12/10 A3006 RMK A01 T01230104  RH  091%=      5-min Rain = 0
KARS 230640Z 04011KT 12/11 A3006 RMK A01 T01230105  RH  092%=      5-min Rain = 0
KARS 230645Z 03011KT 12/10 A3006 RMK A01 T01230104  RH  092%=      5-min Rain = 0
KARS 230650Z 04013KT 12/10 A3006 RMK A01 T01220104  RH  092%=      5-min Rain = 0
KARS 230655Z 04014KT 12/10 A3005 RMK A01 T01220104  RH  092%=      5-min Rain = 0
KARS 230700Z 04014KT 12/10 A3005 RMK A01 T01210104  RH  092%=      5-min Rain = 0
KARS 230705Z 04013G18KT 12/11 A3004 RMK A01 T01210105  RH  093%=      5-min Rain = 0
KARS 230710Z 04015KT 12/10 A3004 RMK A01 T01210104  RH  092%=      5-min Rain = 0
KARS 230715Z 04014KT 12/10 A3004 RMK A01 T01210104  RH  093%=      5-min Rain = 0
KARS 230720Z 03013G18KT 12/10 A3004 RMK A01 T01210104  RH  093%=      5-min Rain = 0
KARS 230725Z 02011KT 12/11 A3005 RMK A01 T01210105  RH  093%=      5-min Rain = 0
KARS 230730Z 02011KT 12/11 A3005 RMK A01 T01210105  RH  093%=      5-min Rain = 0
KARS 230735Z 01011KT 12/11 A3006 RMK A01 T01210105  RH  093%=      5-min Rain = 0
KARS 230740Z 01010KT 12/11 A3005 RMK A01 T01200105  RH  094%=      5-min Rain = 0
KARS 230745Z 02014KT 12/11 A3005 RMK A01 T01200105  RH  093%=      5-min Rain = 0
KARS 230750Z 03016KT 12/11 A3004 RMK A01 T01210105  RH  093%=      5-min Rain = 0
KARS 230755Z 04017G22KT 12/10 A3004 RMK A01 T01210104  RH  093%=      5-min Rain = 0
KARS 230800Z 04017KT 12/11 A3003 RMK A01 T01210105  RH  093%=      5-min Rain = 0
KARS 230805Z 04017KT 12/10 A3002 RMK A01 T01200104  RH  093%=      5-min Rain = 0.01
KARS 230810Z 04016G21KT 12/11 A3002 RMK A01 T01200105  RH  093%=      5-min Rain = 0
KARS 230815Z 04013KT 12/11 A3003 RMK A01 T01190105  RH  094%=      5-min Rain = 0.01
KARS 230820Z 03012G17KT 12/11 A3003 RMK A01 T01190105  RH  094%=      5-min Rain = 0
KARS 230825Z 36011KT 12/11 A3004 RMK A01 T01190105  RH  094%=      5-min Rain = 0.02
KARS 230830Z 35012KT 12/11 A3005 RMK A01 T01190105  RH  095%=      5-min Rain = 0.03
KARS 230835Z 03014KT 12/11 A3004 RMK A01 T01180105  RH  095%=      5-min Rain = 0.02
KARS 230840Z 03012KT 12/11 A3004 RMK A01 T01180105  RH  095%=      5-min Rain = 0
KARS 230845Z 01011KT 12/11 A3004 RMK A01 T01180105  RH  095%=      5-min Rain = 0
KARS 230850Z 02014G21KT 12/11 A3004 RMK A01 T01180105  RH  095%=      5-min Rain = 0
KARS 230855Z 04016KT 12/11 A3002 RMK A01 T01190106  RH  095%=      5-min Rain = 0
KARS 230900Z 04015KT 12/11 A3002 RMK A01 T01190105  RH  095%=      5-min Rain = 0
KARS 230905Z 04015KT 12/11 A3002 RMK A01 T01190106  RH  095%=      5-min Rain = 0
KARS 230910Z 04014KT 12/11 A3002 RMK A01 T01200106  RH  094%=      5-min Rain = 0
KARS 230915Z 04012G17KT 12/11 A3002 RMK A01 T01200106  RH  094%=      5-min Rain = 0
KARS 230920Z 03013KT 12/11 A3002 RMK A01 T01200106  RH  094%=      5-min Rain = 0
KARS 230925Z 03012KT 12/11 A3002 RMK A01 T01190105  RH  094%=      5-min Rain = 0
KARS 230930Z 03012KT 12/11 A3002 RMK A01 T01190106  RH  095%=      5-min Rain = 0.01
KARS 230935Z 03011KT 12/11 A3003 RMK A01 T01190106  RH  095%=      5-min Rain = 0
KARS 230940Z 04009KT 12/11 A3004 RMK A01 T01190106  RH  095%=      5-min Rain = 0.05
KARS 230945Z 03009KT 12/11 A3004 RMK A01 T01180105  RH  095%=      5-min Rain = 0.1
KARS 230950Z 01008KT 12/11 A3005 RMK A01 T01180105  RH  095%=      5-min Rain = 0.09
KARS 230955Z 01007KT 12/11 A3006 RMK A01 T01170106  RH  096%=      5-min Rain = 0.04
KARS 231000Z 36006KT 12/11 A3007 RMK A01 T01170106  RH  096%=      5-min Rain = 0.03
KARS 231005Z 31007KT 12/11 A3009 RMK A01 T01180107  RH  096%=      5-min Rain = 0.04
KARS 231010Z 30007KT 12/11 A3009 RMK A01 T01180107  RH  096%=      5-min Rain = 0.03
KARS 231015Z 32010KT 12/11 A3008 RMK A01 T01180107  RH  097%=      5-min Rain = 0.03
KARS 231020Z 00011KT 12/11 A3006 RMK A01 T01170107  RH  097%=      5-min Rain = 0.01
KARS 231025Z 02012KT 12/11 A3004 RMK A01 T01170106  RH  097%=      5-min Rain = 0.01
KARS 231030Z 02014KT 12/11 A3002 RMK A01 T01160106  RH  097%=      5-min Rain = 0
KARS 231035Z 02012G18KT 12/11 A3001 RMK A01 T01160106  RH  097%=      5-min Rain = 0.01
KARS 231040Z 02010KT 12/11 A3001 RMK A01 T01160106  RH  097%=      5-min Rain = 0
KARS 231045Z 03010KT 12/11 A3001 RMK A01 T01160106  RH  097%=      5-min Rain = 0.01
KARS 231050Z 05010KT 12/11 A3001 RMK A01 T01160105  RH  096%=      5-min Rain = 0
KARS 231055Z 06011G16KT 12/11 A3001 RMK A01 T01170105  RH  096%=      5-min Rain = 0
KARS 231100Z 05009KT 12/10 A3002 RMK A01 T01170104  RH  095%=      5-min Rain = 0
KARS 231105Z 06010KT 12/10 A3002 RMK A01 T01170104  RH  095%=      5-min Rain = 0
KARS 231110Z 06010KT 12/10 A3002 RMK A01 T01170104  RH  095%=      5-min Rain = 0
KARS 231115Z 06009KT 12/10 A3003 RMK A01 T01160104  RH  095%=      5-min Rain = 0
KARS 231120Z 05006KT 12/10 A3004 RMK A01 T01160104  RH  095%=      5-min Rain = 0
KARS 231125Z 01003KT 12/10 A3005 RMK A01 T01150103  RH  096%=      5-min Rain = 0
KARS 231130Z 33004KT 12/10 A3006 RMK A01 T01150104  RH  096%=      5-min Rain = 0
KARS 231135Z 30008KT 12/11 A3007 RMK A01 T01170106  RH  096%=      5-min Rain = 0
KARS 231140Z 30007KT 12/11 A3008 RMK A01 T01170106  RH  096%=      5-min Rain = 0
KARS 231145Z 31009KT 12/11 A3008 RMK A01 T01180107  RH  096%=      5-min Rain = 0
KARS 231150Z 32010KT 12/11 A3008 RMK A01 T01190107  RH  096%=      5-min Rain = 0
KARS 231155Z 33010KT 12/11 A3007 RMK A01 T01190107  RH  096%=      5-min Rain = 0
KARS 231200Z 33010KT 12/11 A3007 RMK A01 T01190107  RH  096%=      5-min Rain = 0
KARS 231205Z 34010KT 12/11 A3007 RMK A01 T01190107  RH  096%=      5-min Rain = 0
KARS 231210Z 01010KT 12/11 A3006 RMK A01 T01190107  RH  096%=      5-min Rain = 0
KARS 231215Z 01008KT 12/11 A3006 RMK A01 T01180107  RH  096%=      5-min Rain = 0
KARS 231220Z 02007KT 12/11 A3006 RMK A01 T01180106  RH  096%=      5-min Rain = 0
KARS 231225Z 02006KT 12/11 A3006 RMK A01 T01170106  RH  096%=      5-min Rain = 0
KARS 231230Z 36008KT 12/11 A3007 RMK A01 T01180107  RH  096%=      5-min Rain = 0
KARS 231235Z 00006KT 12/11 A3007 RMK A01 T01190108  RH  096%=      5-min Rain = 0
KARS 231240Z 36006KT 12/11 A3008 RMK A01 T01190108  RH  096%=      5-min Rain = 0
KARS 231245Z 34006KT 12/11 A3009 RMK A01 T01200108  RH  096%=      5-min Rain = 0
KARS 231250Z 34006KT 12/11 A301 RMK A01 T01200108  RH  096%=      5-min Rain = 0
KARS 231255Z 01007KT 12/11 A3009 RMK A01 T01200108  RH  096%=      5-min Rain = 0
KARS 231300Z 02008KT 12/11 A3008 RMK A01 T01210109  RH  096%=      5-min Rain = 0
KARS 231305Z 01010KT 12/11 A3008 RMK A01 T01210109  RH  095%=      5-min Rain = 0
KARS 231310Z 01011KT 12/11 A3008 RMK A01 T01200108  RH  095%=      5-min Rain = 0
KARS 231315Z 01012KT 12/11 A3007 RMK A01 T01200107  RH  095%=      5-min Rain = 0
KARS 231320Z 01012KT 12/11 A3007 RMK A01 T01200107  RH  095%=      5-min Rain = 0
KARS 231325Z 00013KT 12/11 A3006 RMK A01 T01200107  RH  095%=      5-min Rain = 0
KARS 231330Z 00013KT 12/11 A3006 RMK A01 T01200107  RH  095%=      5-min Rain = 0
KARS 231335Z 01014KT 12/11 A3006 RMK A01 T01210107  RH  095%=      5-min Rain = 0
KARS 231340Z 02012KT 12/11 A3007 RMK A01 T01210107  RH  094%=      5-min Rain = 0
KARS 231345Z 03008KT 12/11 A3007 RMK A01 T01220107  RH  094%=      5-min Rain = 0
KARS 231350Z 03009KT 12/11 A3008 RMK A01 T01230108  RH  094%=      5-min Rain = 0
KARS 231355Z 03009KT 12/11 A3007 RMK A01 T01230108  RH  094%=      5-min Rain = 0
KARS 231400Z 04011KT 12/11 A3007 RMK A01 T01240109  RH  094%=      5-min Rain = 0
KARS 231405Z 04011KT 13/11 A3007 RMK A01 T01250109  RH  093%=      5-min Rain = 0
KARS 231410Z 05010KT 13/11 A3007 RMK A01 T01250110  RH  094%=      5-min Rain = 0
KARS 231415Z 05012KT 13/11 A3007 RMK A01 T01250109  RH  093%=      5-min Rain = 0
KARS 231420Z 05010KT 13/11 A3007 RMK A01 T01260110  RH  093%=      5-min Rain = 0
KARS 231425Z 05010KT 13/11 A3007 RMK A01 T01260111  RH  093%=      5-min Rain = 0
KARS 231430Z 05012KT 13/11 A3007 RMK A01 T01280111  RH  093%=      5-min Rain = 0
KARS 231435Z 05012KT 13/11 A3007 RMK A01 T01300111  RH  092%=      5-min Rain = 0
KARS 231440Z 05011G16KT 13/11 A3007 RMK A01 T01310111  RH  091%=      5-min Rain = 0
KARS 231445Z 05013KT 13/11 A3007 RMK A01 T01320112  RH  091%=      5-min Rain = 0
KARS 231450Z 05012KT 13/11 A3008 RMK A01 T01340114  RH  090%=      5-min Rain = 0
KARS 231455Z 05011KT 14/11 A3008 RMK A01 T01360113  RH  089%=      5-min Rain = 0
KARS 231500Z 05011KT 14/11 A3009 RMK A01 T01350112  RH  089%=      5-min Rain = 0
KARS 231505Z 05010KT 14/11 A3009 RMK A01 T01360112  RH  089%=      5-min Rain = 0
KARS 231510Z 05012KT 14/11 A3009 RMK A01 T01350112  RH  089%=      5-min Rain = 0
KARS 231515Z 05012KT 13/11 A3009 RMK A01 T01340111  RH  089%=      5-min Rain = 0
KARS 231520Z 04011KT 13/11 A3009 RMK A01 T01340111  RH  089%=      5-min Rain = 0
KARS 231525Z 05011KT 14/11 A3009 RMK A01 T01350112  RH  089%=      5-min Rain = 0
KARS 231530Z 04010KT 14/11 A3009 RMK A01 T01380114  RH  089%=      5-min Rain = 0
KARS 231535Z 05010KT 14/12 A3009 RMK A01 T01390115  RH  089%=      5-min Rain = 0
KARS 231540Z 03011KT 14/12 A301 RMK A01 T01380115  RH  089%=      5-min Rain = 0
KARS 231545Z 03011KT 14/11 A3009 RMK A01 T01370114  RH  089%=      5-min Rain = 0
KARS 231550Z 03012KT 14/11 A301 RMK A01 T01360113  RH  089%=      5-min Rain = 0
KARS 231555Z 04011KT 14/12 A301 RMK A01 T01370115  RH  089%=      5-min Rain = 0
KARS 231600Z 04010KT 14/12 A301 RMK A01 T01370115  RH  090%=      5-min Rain = 0
KARS 231605Z 05010KT 14/12 A301 RMK A01 T01360115  RH  090%=      5-min Rain = 0
KARS 231610Z 04012KT 14/12 A301 RMK A01 T01370116  RH  090%=      5-min Rain = 0
KARS 231615Z 04012KT 14/12 A301 RMK A01 T01380118  RH  090%=      5-min Rain = 0
KARS 231620Z 05013KT 14/12 A3009 RMK A01 T01400117  RH  089%=      5-min Rain = 0
KARS 231625Z 05011KT 14/12 A3009 RMK A01 T01430120  RH  089%=      5-min Rain = 0
KARS 231630Z 05012KT 15/12 A3009 RMK A01 T01450119  RH  088%=      5-min Rain = 0
KARS 231635Z 05014KT 15/12 A3009 RMK A01 T01480121  RH  087%=      5-min Rain = 0
KARS 231640Z 05013KT 15/12 A3008 RMK A01 T01530124  RH  086%=      5-min Rain = 0
KARS 231645Z 05014KT 15/12 A3008 RMK A01 T01510124  RH  087%=      5-min Rain = 0
KARS 231650Z 04013G18KT 15/12 A3008 RMK A01 T01490121  RH  086%=      5-min Rain = 0
KARS 231655Z 03013KT 14/12 A3009 RMK A01 T01420117  RH  089%=      5-min Rain = 0
KARS 231700Z 04012G17KT 14/12 A3008 RMK A01 T01420119  RH  089%=      5-min Rain = 0
KARS 231705Z 04015KT 14/12 A3008 RMK A01 T01400116  RH  089%=      5-min Rain = 0
KARS 231710Z 04013KT 15/12 A3008 RMK A01 T01450118  RH  087%=      5-min Rain = 0
KARS 231715Z 05012G17KT 15/12 A3008 RMK A01 T01470117  RH  085%=      5-min Rain = 0
KARS 231720Z 05012KT 15/12 A3008 RMK A01 T01460116  RH  085%=      5-min Rain = 0
KARS 231725Z 05013KT 15/12 A3008 RMK A01 T01480116  RH  084%=      5-min Rain = 0
KARS 231730Z 05013G19KT 15/12 A3008 RMK A01 T01480117  RH  085%=      5-min Rain = 0
KARS 231735Z 04012KT 15/12 A3008 RMK A01 T01460117  RH  086%=      5-min Rain = 0
KARS 231740Z 04013KT 14/12 A3008 RMK A01 T01440116  RH  086%=      5-min Rain = 0
KARS 231745Z 04012KT 14/12 A3009 RMK A01 T01410115  RH  087%=      5-min Rain = 0
KARS 231750Z 04013KT 14/11 A3009 RMK A01 T01370114  RH  089%=      5-min Rain = 0
KARS 231755Z 02013KT 13/11 A3009 RMK A01 T01330114  RH  092%=      5-min Rain = 0
KARS 231800Z 04014G19KT 13/11 A3008 RMK A01 T01310114  RH  093%=      5-min Rain = 0
KARS 231805Z 05014KT 13/11 A3008 RMK A01 T01300114  RH  093%=      5-min Rain = 0
KARS 231810Z 04011KT 13/11 A3008 RMK A01 T01310114  RH  093%=      5-min Rain = 0
KARS 231815Z 03012KT 13/11 A3009 RMK A01 T01300112  RH  092%=      5-min Rain = 0
KARS 231820Z 03012KT 13/11 A3009 RMK A01 T01300112  RH  092%=      5-min Rain = 0
KARS 231825Z 03012KT 13/11 A3009 RMK A01 T01300112  RH  092%=      5-min Rain = 0
KARS 231830Z 03012KT 13/11 A3009 RMK A01 T01290109  RH  091%=      5-min Rain = 0
KARS 231835Z 04012KT 13/11 A3009 RMK A01 T01280108  RH  091%=      5-min Rain = 0
KARS 231840Z 04011KT 13/11 A3008 RMK A01 T01300110  RH  091%=      5-min Rain = 0
KARS 231845Z 03012KT 13/11 A3008 RMK A01 T01320110  RH  089%=      5-min Rain = 0
KARS 231850Z 03012KT 13/11 A3008 RMK A01 T01320110  RH  089%=      5-min Rain = 0
KARS 231855Z 03012KT 13/11 A3008 RMK A01 T01300107  RH  089%=      5-min Rain = 0
KARS 231900Z 03011KT 13/11 A3008 RMK A01 T01310108  RH  088%=      5-min Rain = 0
KARS 231905Z 04012KT 13/11 A3008 RMK A01 T01320107  RH  087%=      5-min Rain = 0
KARS 231910Z 04011KT 13/11 A3008 RMK A01 T01330107  RH  087%=      5-min Rain = 0
KARS 231915Z 04010G15KT 13/11 A3008 RMK A01 T01340107  RH  086%=      5-min Rain = 0
KARS 231920Z 03012KT 13/11 A3008 RMK A01 T01320106  RH  087%=      5-min Rain = 0
KARS 231925Z 03012KT 13/11 A3008 RMK A01 T01310105  RH  087%=      5-min Rain = 0
KARS 231930Z 03011KT 13/11 A3008 RMK A01 T01300106  RH  088%=      5-min Rain = 0
KARS 231935Z 03010KT 13/11 A3008 RMK A01 T01300106  RH  088%=      5-min Rain = 0
KARS 231940Z 03009KT 13/11 A3008 RMK A01 T01320107  RH  088%=      5-min Rain = 0
KARS 231945Z 03011G16KT 13/11 A3008 RMK A01 T01320105  RH  087%=      5-min Rain = 0
KARS 231950Z 03009KT 13/11 A3008 RMK A01 T01320106  RH  087%=      5-min Rain = 0
KARS 231955Z 02013KT 13/11 A3008 RMK A01 T01320105  RH  087%=      5-min Rain = 0
KARS 232000Z 02012KT 13/10 A3008 RMK A01 T01280104  RH  088%=      5-min Rain = 0
KARS 232005Z 02014KT 13/10 A3008 RMK A01 T01270103  RH  088%=      5-min Rain = 0
KARS 232010Z 02013KT 13/10 A3008 RMK A01 T01250102  RH  089%=      5-min Rain = 0
KARS 232015Z 02014KT 13/10 A3007 RMK A01 T01250101  RH  088%=      5-min Rain = 0
KARS 232020Z 02012KT 13/10 A3007 RMK A01 T01250100  RH  088%=      5-min Rain = 0
KARS 232025Z 02011KT 13/10 A3008 RMK A01 T01260102  RH  088%=      5-min Rain = 0
KARS 232030Z 03010KT 13/10 A3008 RMK A01 T01280104  RH  088%=      5-min Rain = 0
KARS 232035Z 02014KT 13/10 A3008 RMK A01 T01270101  RH  087%=      5-min Rain = 0
KARS 232040Z 02012KT 12/10 A3008 RMK A01 T01220100  RH  089%=      5-min Rain = 0
KARS 232045Z 02011KT 12/10 A3008 RMK A01 T01220101  RH  090%=      5-min Rain = 0
KARS 232050Z 02012KT 12/10 A3008 RMK A01 T01230100  RH  089%=      5-min Rain = 0
KARS 232055Z 02011KT 12/10 A3007 RMK A01 T01240100  RH  088%=      5-min Rain = 0
KARS 232100Z 02013KT 12/10 A3007 RMK A01 T01240099  RH  088%=      5-min Rain = 0
KARS 232105Z 02011KT 12/10 A3007 RMK A01 T01240098  RH  087%=      5-min Rain = 0
KARS 232110Z 03010KT 13/10 A3007 RMK A01 T01250099  RH  087%=      5-min Rain = 0
KARS 232115Z 03010KT 13/10 A3007 RMK A01 T01280102  RH  087%=      5-min Rain = 0
KARS 232120Z 03011KT 13/10 A3006 RMK A01 T01290101  RH  086%=      5-min Rain = 0
KARS 232125Z 03012KT 13/10 A3006 RMK A01 T01320103  RH  085%=      5-min Rain = 0
KARS 232130Z 02012KT 13/10 A3006 RMK A01 T01310101  RH  085%=      5-min Rain = 0
KARS 232135Z 01011KT 13/10 A3006 RMK A01 T01310102  RH  085%=      5-min Rain = 0
KARS 232140Z 02012KT 13/10 A3005 RMK A01 T01320102  RH  085%=      5-min Rain = 0
KARS 232145Z 02012KT 13/10 A3005 RMK A01 T01320101  RH  084%=      5-min Rain = 0
KARS 232150Z 02012KT 13/10 A3005 RMK A01 T01340102  RH  083%=      5-min Rain = 0
KARS 232155Z 02013KT 13/10 A3005 RMK A01 T01320099  RH  083%=      5-min Rain = 0
KARS 232200Z 02012KT 13/10 A3005 RMK A01 T01340101  RH  084%=      5-min Rain = 0
KARS 232205Z 01012KT 13/10 A3005 RMK A01 T01330100  RH  083%=      5-min Rain = 0
KARS 232210Z 01012KT 13/10 A3005 RMK A01 T01330100  RH  083%=      5-min Rain = 0
KARS 232215Z 01012KT 14/10 A3005 RMK A01 T01350101  RH  083%=      5-min Rain = 0
KARS 232220Z 01012KT 14/10 A3005 RMK A01 T01370102  RH  082%=      5-min Rain = 0
KARS 232225Z 02011KT 14/10 A3005 RMK A01 T01390102  RH  081%=      5-min Rain = 0
KARS 232230Z 02012KT 14/10 A3004 RMK A01 T01380101  RH  081%=      5-min Rain = 0
KARS 232235Z 02011KT 14/10 A3005 RMK A01 T01360101  RH  082%=      5-min Rain = 0
KARS 232240Z 02012KT 14/10 A3004 RMK A01 T01350100  RH  082%=      5-min Rain = 0
KARS 232245Z 03011KT 14/10 A3004 RMK A01 T01350102  RH  083%=      5-min Rain = 0
KARS 232250Z 02012KT 14/10 A3004 RMK A01 T01360101  RH  082%=      5-min Rain = 0
KARS 232255Z 01012KT 14/10 A3004 RMK A01 T01380099  RH  080%=      5-min Rain = 0
KARS 232300Z 02011KT 14/10 A3004 RMK A01 T01380096  RH  078%=      5-min Rain = 0
KARS 232305Z 02012KT 14/10 A3004 RMK A01 T01400098  RH  078%=      5-min Rain = 0
KARS 232310Z 02012KT 14/10 A3004 RMK A01 T01380095  RH  077%=      5-min Rain = 0
KARS 232315Z 02013KT 14/10 A3004 RMK A01 T01390095  RH  078%=      5-min Rain = 0
KARS 232320Z 02012KT 14/10 A3004 RMK A01 T01390095  RH  077%=      5-min Rain = 0
KARS 232325Z 03011KT 14/09 A3004 RMK A01 T01380094  RH  077%=      5-min Rain = 0
KARS 232330Z 02012G17KT 14/10 A3004 RMK A01 T01380095  RH  077%=      5-min Rain = 0
KARS 232335Z 02012KT 14/10 A3004 RMK A01 T01380095  RH  078%=      5-min Rain = 0
KARS 232340Z 02012G17KT 14/10 A3004 RMK A01 T01370096  RH  079%=      5-min Rain = 0
KARS 232345Z 02013KT 14/10 A3004 RMK A01 T01370096  RH  079%=      5-min Rain = 0
KARS 232350Z 01012KT 14/10 A3004 RMK A01 T01370096  RH  079%=      5-min Rain = 0
KARS 232355Z 02012KT 14/10 A3004 RMK A01 T01360096  RH  079%=      5-min Rain = 0
KARS 240000Z 02012KT 14/10 A3005 RMK A01 T01360096  RH  079%=      5-min Rain = 0
KARS 240005Z 02012KT 14/10 A3005 RMK A01 T01360096  RH  079%=      5-min Rain = 0
KARS 240010Z 02012KT 14/10 A3005 RMK A01 T01350095  RH  079%=      5-min Rain = 0
KARS 240015Z 02013KT 14/09 A3005 RMK A01 T01350094  RH  079%=      5-min Rain = 0
KARS 240020Z 02011KT 14/09 A3005 RMK A01 T01350094  RH  079%=      5-min Rain = 0
KARS 240025Z 02011KT 14/09 A3005 RMK A01 T01350094  RH  079%=      5-min Rain = 0
KARS 240030Z 01012KT 14/09 A3004 RMK A01 T01350093  RH  078%=      5-min Rain = 0
KARS 240035Z 01011KT 13/09 A3004 RMK A01 T01340094  RH  079%=      5-min Rain = 0
KARS 240040Z 01012KT 13/09 A3003 RMK A01 T01340093  RH  079%=      5-min Rain = 0
KARS 240045Z 01012KT 13/09 A3003 RMK A01 T01320092  RH  079%=      5-min Rain = 0
KARS 240050Z 01010KT 13/09 A3003 RMK A01 T01310091  RH  079%=      5-min Rain = 0
KARS 240055Z 01011KT 13/09 A3003 RMK A01 T01300090  RH  079%=      5-min Rain = 0
KARS 240100Z 01010KT 13/09 A3003 RMK A01 T01290090  RH  080%=      5-min Rain = 0
KARS 240105Z 01009KT 13/09 A3003 RMK A01 T01280090  RH  080%=      5-min Rain = 0
KARS 240110Z 02009KT 13/09 A3003 RMK A01 T01270090  RH  080%=      5-min Rain = 0
KARS 240115Z 02008KT 13/09 A3003 RMK A01 T01270090  RH  081%=      5-min Rain = 0
KARS 240120Z 03008KT 13/09 A3004 RMK A01 T01260090  RH  081%=      5-min Rain = 0
KARS 240125Z 03007KT 13/09 A3004 RMK A01 T01250091  RH  082%=      5-min Rain = 0
KARS 240130Z 03007KT 12/09 A3004 RMK A01 T01240091  RH  083%=      5-min Rain = 0
KARS 240135Z 03007KT 12/09 A3004 RMK A01 T01230091  RH  083%=      5-min Rain = 0
KARS 240140Z 02007KT 12/09 A3004 RMK A01 T01230092  RH  084%=      5-min Rain = 0
KARS 240145Z 01008KT 12/09 A3004 RMK A01 T01220091  RH  084%=      5-min Rain = 0
KARS 240150Z 01010KT 12/09 A3003 RMK A01 T01220090  RH  083%=      5-min Rain = 0
KARS 240155Z 01010KT 12/09 A3003 RMK A01 T01220089  RH  083%=      5-min Rain = 0
KARS 240200Z 00010KT 12/09 A3003 RMK A01 T01210089  RH  083%=      5-min Rain = 0
KARS 240205Z 00011KT 12/09 A3002 RMK A01 T01220088  RH  083%=      5-min Rain = 0
KARS 240210Z 00010KT 12/09 A3002 RMK A01 T01220088  RH  082%=      5-min Rain = 0
KARS 240215Z 00009KT 12/09 A3003 RMK A01 T01210089  RH  083%=      5-min Rain = 0
KARS 240220Z 01007KT 12/09 A3004 RMK A01 T01210088  RH  083%=      5-min Rain = 0
KARS 240225Z 01006KT 12/09 A3004 RMK A01 T01210088  RH  083%=      5-min Rain = 0
KARS 240230Z 01004KT 12/09 A3005 RMK A01 T01210088  RH  083%=      5-min Rain = 0
KARS 240235Z 02003KT 12/09 A3005 RMK A01 T01210089  RH  083%=      5-min Rain = 0
KARS 240240Z 01003KT 12/09 A3005 RMK A01 T01200089  RH  084%=      5-min Rain = 0
KARS 240245Z 35005KT 12/09 A3005 RMK A01 T01190090  RH  085%=      5-min Rain = 0
KARS 240250Z 34007KT 12/09 A3005 RMK A01 T01170090  RH  086%=      5-min Rain = 0
KARS 240255Z 36007KT 12/09 A3005 RMK A01 T01150090  RH  087%=      5-min Rain = 0
KARS 240300Z 01006KT 11/09 A3006 RMK A01 T01140088  RH  087%=      5-min Rain = 0
KARS 240305Z 01006KT 11/09 A3005 RMK A01 T01120087  RH  087%=      5-min Rain = 0
KARS 240310Z 00007KT 11/09 A3005 RMK A01 T01090086  RH  088%=      5-min Rain = 0
KARS 240315Z 01008KT 11/08 A3005 RMK A01 T01080083  RH  087%=      5-min Rain = 0
KARS 240320Z 00009KT 11/08 A3005 RMK A01 T01080081  RH  086%=      5-min Rain = 0
KARS 240325Z 36010KT 11/08 A3005 RMK A01 T01080081  RH  085%=      5-min Rain = 0
KARS 240330Z 00009KT 11/08 A3005 RMK A01 T01070079  RH  085%=      5-min Rain = 0
KARS 240335Z 01007KT 11/08 A3005 RMK A01 T01070078  RH  085%=      5-min Rain = 0
KARS 240340Z 01008KT 11/08 A3005 RMK A01 T01050077  RH  085%=      5-min Rain = 0
KARS 240345Z 01007KT 10/08 A3006 RMK A01 T01040076  RH  086%=      5-min Rain = 0
KARS 240350Z 01008KT 10/08 A3006 RMK A01 T01020076  RH  086%=      5-min Rain = 0
KARS 240355Z 01008KT 10/08 A3006 RMK A01 T01010075  RH  086%=      5-min Rain = 0
KARS 240400Z 00006KT 10/08 A3006 RMK A01 T01000075  RH  087%=      5-min Rain = 0
KARS 240405Z 01005KT 10/07 A3007 RMK A01 T01000074  RH  086%=      5-min Rain = 0
KARS 240410Z 03006KT 10/07 A3007 RMK A01 T01010072  RH  085%=      5-min Rain = 0
KARS 240415Z 04006KT 10/07 A3008 RMK A01 T01040071  RH  082%=      5-min Rain = 0
KARS 240420Z 04005KT 11/07 A3008 RMK A01 T01050071  RH  082%=      5-min Rain = 0
KARS 240425Z 02006KT 10/07 A3007 RMK A01 T01040070  RH  082%=      5-min Rain = 0
KARS 240430Z 04006KT 10/07 A3007 RMK A01 T01040070  RH  082%=      5-min Rain = 0
KARS 240435Z 03007KT 10/07 A3007 RMK A01 T01040070  RH  082%=      5-min Rain = 0
KARS 240440Z 02008KT 10/07 A3006 RMK A01 T01020071  RH  083%=      5-min Rain = 0
KARS 240445Z 03006KT 10/07 A3006 RMK A01 T01010071  RH  084%=      5-min Rain = 0
KARS 240450Z 03006KT 10/07 A3006 RMK A01 T01010071  RH  084%=      5-min Rain = 0
KARS 240455Z 02006KT 10/07 A3005 RMK A01 T00990071  RH  085%=      5-min Rain = 0

Page generated in 0.0091 seconds.